createdAt,value
2022-09-03T00:00:55.781Z,0.90
2022-09-03T00:03:38.953Z,0.95
2022-09-03T00:06:20.892Z,0.80
2022-09-03T00:09:17.919Z,0.85
2022-09-03T00:12:25.091Z,1.05
2022-09-03T00:15:01.816Z,0.95
2022-09-03T00:17:43.883Z,0.70
2022-09-03T00:22:46.658Z,0.98
2022-09-03T00:25:19.786Z,0.80
2022-09-03T00:27:51.872Z,0.98
2022-09-03T00:30:19.244Z,0.95
2022-09-03T00:32:58.397Z,1.00
2022-09-03T00:35:32.016Z,0.90
2022-09-03T00:38:00.260Z,0.88
2022-09-03T00:40:48.223Z,1.05
2022-09-03T00:43:39.582Z,0.90
2022-09-03T00:46:20.619Z,1.00
2022-09-03T00:48:53.335Z,1.00
2022-09-03T00:51:29.574Z,0.90
2022-09-03T00:54:41.972Z,0.80
2022-09-03T00:57:25.844Z,0.90
2022-09-03T01:00:00.601Z,0.90
2022-09-03T01:03:01.799Z,1.10
2022-09-03T01:06:06.631Z,0.97
2022-09-03T01:09:09.621Z,1.00
2022-09-03T01:11:50.098Z,1.00
2022-09-03T01:14:32.037Z,0.73
2022-09-03T01:17:37.135Z,0.75
2022-09-03T01:20:49.967Z,0.95
2022-09-03T01:23:54.843Z,0.95
2022-09-03T01:26:30.527Z,1.05
2022-09-03T01:29:32.944Z,0.98
2022-09-03T01:34:38.870Z,1.00
2022-09-03T01:37:37.666Z,1.05
2022-09-03T01:40:18.784Z,0.82
2022-09-03T01:43:04.394Z,1.00
2022-09-03T01:45:51.197Z,0.93
2022-09-03T01:48:35.148Z,1.10
2022-09-03T01:51:28.321Z,1.17
2022-09-03T01:54:40.534Z,0.90
2022-09-03T01:57:39.862Z,1.10
2022-09-03T02:00:20.891Z,1.25
2022-09-03T02:02:51.598Z,1.20
2022-09-03T02:05:24.999Z,1.23
2022-09-03T02:08:22.769Z,0.80
2022-09-03T02:10:55.680Z,1.17
2022-09-03T02:13:28.806Z,1.02
2022-09-03T02:16:03.154Z,1.00
2022-09-03T02:18:34.701Z,0.98
2022-09-03T02:21:01.584Z,1.05
2022-09-03T02:23:30.237Z,1.10
2022-09-03T02:26:00.878Z,0.90
2022-09-03T02:28:32.651Z,1.00
2022-09-03T02:30:59.697Z,1.10
2022-09-03T02:33:28.031Z,1.20
2022-09-03T02:35:55.397Z,1.08
2022-09-03T02:38:26.344Z,1.02
2022-09-03T02:40:56.462Z,1.10
2022-09-03T02:43:47.303Z,1.20
2022-09-03T02:46:27.951Z,1.17
2022-09-03T02:48:55.614Z,1.20
2022-09-03T02:51:22.567Z,1.30
2022-09-03T02:53:49.523Z,1.52
2022-09-03T02:56:18.004Z,0.98
2022-09-03T02:58:48.428Z,1.10
2022-09-03T03:01:21.773Z,1.35
2022-09-03T03:03:51.606Z,1.75
2022-09-03T03:06:22.258Z,1.30
2022-09-03T03:08:50.428Z,1.23
2022-09-03T03:11:19.808Z,1.63
2022-09-03T03:13:47.404Z,1.48
2022-09-03T03:16:17.204Z,1.25
2022-09-03T03:18:47.734Z,1.20
2022-09-03T03:21:17.629Z,1.30
2022-09-03T03:23:45.490Z,1.08
2022-09-03T03:26:15.178Z,1.02
2022-09-03T03:28:42.622Z,1.40
2022-09-03T03:31:11.962Z,1.50
2022-09-03T03:33:40.222Z,1.50
2022-09-03T03:36:10.222Z,1.67
2022-09-03T03:38:38.250Z,1.60
2022-09-03T03:41:09.715Z,1.20
2022-09-03T03:43:39.907Z,1.30
2022-09-03T03:46:09.505Z,1.20
2022-09-03T03:48:38.715Z,1.30
2022-09-03T03:51:08.805Z,1.25
2022-09-03T03:53:37.817Z,1.20
2022-09-03T03:56:07.859Z,1.40
2022-09-03T03:58:37.545Z,1.20
2022-09-03T04:01:09.932Z,1.50
2022-09-03T04:03:38.599Z,1.40
2022-09-03T04:06:06.590Z,1.23
2022-09-03T04:08:39.875Z,1.50
2022-09-03T04:11:10.181Z,1.30
2022-09-03T04:13:39.964Z,1.20
2022-09-03T04:16:10.074Z,1.98
2022-09-03T04:18:38.422Z,1.50
2022-09-03T04:21:07.946Z,1.38
2022-09-03T04:23:37.783Z,1.52
2022-09-03T04:26:06.123Z,1.38
2022-09-03T04:28:33.842Z,1.38
2022-09-03T04:31:11.771Z,1.30
2022-09-03T04:33:39.690Z,1.10
2022-09-03T04:36:12.760Z,1.40
2022-09-03T04:38:42.652Z,1.40
2022-09-03T04:41:12.531Z,1.25
2022-09-03T04:43:39.587Z,1.70
2022-09-03T04:46:16.170Z,1.70
2022-09-03T04:48:49.053Z,1.60
2022-09-03T04:51:18.125Z,1.42
2022-09-03T04:53:47.434Z,1.35
2022-09-03T04:56:22.574Z,1.50
2022-09-03T04:58:56.397Z,1.50
2022-09-03T05:01:26.098Z,1.83
2022-09-03T05:03:55.893Z,1.73
2022-09-03T05:06:23.044Z,1.30
2022-09-03T05:08:51.312Z,1.42
2022-09-03T05:11:18.884Z,1.20
2022-09-03T05:13:54.146Z,1.60
2022-09-03T05:16:22.441Z,1.67
2022-09-03T05:18:54.246Z,1.77
2022-09-03T05:21:22.469Z,1.80
2022-09-03T05:23:51.111Z,1.77
2022-09-03T05:26:20.567Z,1.83
2022-09-03T05:28:48.530Z,1.80
2022-09-03T05:31:18.394Z,1.70
2022-09-03T05:33:53.790Z,1.80
2022-09-03T05:36:25.522Z,2.10
2022-09-03T05:38:56.206Z,1.90
2022-09-03T05:41:27.651Z,1.48
2022-09-03T05:43:56.463Z,1.65
2022-09-03T05:46:30.331Z,1.77
2022-09-03T05:49:02.268Z,1.80
2022-09-03T05:51:31.080Z,1.92
2022-09-03T05:53:59.314Z,1.75
2022-09-03T05:56:28.442Z,2.05
2022-09-03T05:58:59.325Z,1.70
2022-09-03T06:01:32.156Z,1.83
2022-09-03T06:04:00.436Z,1.83
2022-09-03T06:06:29.848Z,1.63
2022-09-03T06:09:04.981Z,1.98
2022-09-03T06:11:33.711Z,1.63
2022-09-03T06:14:02.820Z,1.90
2022-09-03T06:16:31.806Z,1.25
2022-09-03T06:19:00.595Z,1.35
2022-09-03T06:21:28.393Z,1.20
2022-09-03T06:23:59.512Z,1.25
2022-09-03T06:26:29.491Z,1.35
2022-09-03T06:28:57.685Z,1.25
2022-09-03T06:31:26.146Z,1.30
2022-09-03T06:33:55.022Z,1.10
2022-09-03T06:36:24.070Z,1.20
2022-09-03T06:38:56.331Z,1.10
2022-09-03T06:41:25.988Z,1.33
2022-09-03T06:44:05.702Z,1.20
2022-09-03T06:46:35.140Z,1.17
2022-09-03T06:49:02.878Z,1.00
2022-09-03T06:51:33.426Z,1.10
2022-09-03T06:54:02.856Z,1.17
2022-09-03T06:56:33.963Z,0.95
2022-09-03T06:59:13.364Z,1.13
2022-09-03T07:01:43.821Z,1.35
2022-09-03T07:04:17.000Z,1.10
2022-09-03T07:06:47.720Z,1.30
2022-09-03T07:09:16.043Z,1.05
2022-09-03T07:11:48.655Z,1.10
2022-09-03T07:14:21.505Z,1.23
2022-09-03T07:16:50.844Z,1.20
2022-09-03T07:19:18.278Z,1.23
2022-09-03T07:21:50.199Z,1.15
2022-09-03T07:24:22.716Z,1.10
2022-09-03T07:26:50.292Z,1.27
2022-09-03T07:29:21.098Z,1.30
2022-09-03T07:31:53.235Z,1.27
2022-09-03T07:34:25.278Z,1.45
2022-09-03T07:36:54.258Z,1.20
2022-09-03T07:39:21.379Z,1.45
2022-09-03T07:41:48.476Z,1.50
2022-09-03T07:44:20.192Z,1.27
2022-09-03T07:49:15.375Z,1.02
2022-09-03T07:51:42.396Z,1.00
2022-09-03T07:54:11.673Z,1.20
2022-09-03T07:56:41.304Z,1.23
2022-09-03T07:59:09.265Z,1.25
2022-09-03T08:01:39.208Z,1.00
2022-09-03T08:04:10.129Z,1.25
2022-09-03T08:06:38.260Z,1.08
2022-09-03T08:09:07.683Z,1.45
2022-09-03T08:11:39.458Z,0.90
2022-09-03T08:14:12.842Z,1.00
2022-09-03T08:16:47.526Z,1.10
2022-09-03T08:19:15.208Z,1.00
2022-09-03T08:21:42.448Z,1.10
2022-09-03T08:24:12.098Z,1.10
2022-09-03T08:26:45.259Z,1.02
2022-09-03T08:29:14.746Z,1.00
2022-09-03T08:31:41.829Z,1.80
2022-09-03T08:34:10.673Z,1.85
2022-09-03T08:36:39.115Z,1.95
2022-09-03T08:39:11.283Z,1.38
2022-09-03T08:41:53.936Z,1.58
2022-09-03T08:44:32.190Z,4.05
2022-09-03T08:47:09.973Z,2.38
2022-09-03T08:49:47.137Z,1.38
2022-09-03T08:52:38.728Z,1.77
2022-09-03T08:55:16.393Z,1.17
2022-09-03T08:57:47.999Z,1.17
2022-09-03T09:02:55.041Z,1.27
2022-09-03T09:05:36.961Z,1.60
2022-09-03T09:08:36.025Z,1.50
2022-09-03T09:11:08.782Z,1.42
2022-09-03T09:13:45.850Z,0.90
2022-09-03T09:16:35.388Z,1.35
2022-09-03T09:19:21.295Z,1.20
2022-09-03T09:22:10.833Z,1.20
2022-09-03T09:24:46.686Z,1.25
2022-09-03T09:27:17.548Z,1.27
2022-09-03T09:29:49.028Z,0.98
2022-09-03T09:32:19.978Z,1.08
2022-09-03T09:34:52.243Z,1.20
2022-09-03T09:37:20.100Z,1.30
2022-09-03T09:40:00.763Z,1.08
2022-09-03T09:42:31.273Z,1.13
2022-09-03T09:45:10.161Z,5.70
2022-09-03T09:47:40.247Z,1.35
2022-09-03T09:50:26.066Z,2.10
2022-09-03T09:53:08.784Z,1.20
2022-09-03T09:55:39.239Z,1.30
2022-09-03T09:58:14.018Z,9.07
2022-09-03T10:00:43.021Z,1.30
2022-09-03T10:03:13.975Z,1.17
2022-09-03T10:05:41.169Z,1.20
2022-09-03T10:08:21.374Z,1.50
2022-09-03T10:10:51.511Z,1.38
2022-09-03T10:13:23.295Z,1.02
2022-09-03T10:15:57.844Z,1.10
2022-09-03T10:18:46.774Z,1.02
2022-09-03T11:26:01.521Z,1.10
2022-09-03T17:57:14.002Z,1.52
2022-09-03T17:59:52.957Z,1.33
2022-09-03T18:02:27.815Z,1.70
2022-09-03T18:05:04.857Z,1.55
2022-09-03T18:07:42.450Z,1.70
2022-09-03T18:10:13.655Z,1.80
2022-09-03T18:13:01.415Z,1.63
2022-09-03T18:15:49.146Z,1.50
2022-09-03T18:18:29.596Z,1.90
2022-09-03T18:21:26.567Z,1.70
2022-09-03T18:24:42.736Z,1.60
2022-09-03T18:27:35.198Z,1.77
2022-09-03T18:30:26.065Z,1.70
2022-09-03T18:33:11.515Z,1.90
2022-09-03T18:35:58.423Z,2.00
2022-09-03T18:38:51.542Z,1.75
2022-09-03T18:41:52.509Z,2.20
2022-09-03T18:44:44.171Z,1.90
2022-09-03T18:48:02.363Z,1.88
2022-09-03T18:51:16.396Z,2.00
2022-09-03T18:54:27.456Z,2.07
2022-09-03T18:57:13.346Z,2.00
2022-09-03T19:00:11.140Z,2.17
2022-09-03T19:03:30.173Z,2.38
2022-09-03T19:06:38.412Z,2.10
2022-09-03T19:09:41.612Z,2.17
2022-09-03T19:12:59.098Z,1.85
2022-09-03T19:15:59.185Z,1.77
2022-09-03T19:19:29.798Z,2.20
2022-09-03T19:22:23.385Z,1.70
2022-09-03T19:25:16.624Z,2.00
2022-09-03T19:28:21.350Z,1.70
2022-09-03T19:31:13.799Z,2.10
2022-09-03T19:37:11.733Z,2.05
2022-09-03T19:40:29.265Z,2.13
2022-09-03T19:43:31.593Z,2.50
2022-09-03T19:47:04.671Z,2.08
2022-09-03T19:50:17.067Z,1.90
2022-09-03T19:53:20.467Z,1.58
2022-09-03T19:56:13.781Z,1.90
2022-09-03T19:59:05.061Z,2.00
2022-09-03T20:01:54.899Z,1.75
2022-09-03T20:04:49.457Z,1.73
2022-09-03T20:07:36.770Z,2.05
2022-09-03T20:10:25.015Z,2.08
2022-09-03T20:12:59.847Z,2.10
2022-09-03T20:15:39.537Z,2.03
2022-09-03T20:18:17.841Z,1.80
2022-09-03T20:21:07.133Z,2.05
2022-09-03T20:23:50.358Z,2.03
2022-09-03T20:26:29.418Z,2.22
2022-09-03T20:29:18.811Z,2.20
2022-09-03T20:31:59.778Z,2.03
2022-09-03T20:34:32.613Z,2.27
2022-09-03T20:37:11.717Z,2.28
2022-09-03T20:39:45.595Z,2.60
2022-09-03T20:42:36.675Z,2.55
2022-09-03T20:45:25.638Z,2.10
2022-09-03T20:48:07.350Z,2.42
2022-09-03T20:51:05.741Z,2.28
2022-09-03T20:54:00.439Z,2.20
2022-09-03T20:56:46.930Z,2.30
2022-09-03T20:59:39.463Z,2.50
2022-09-03T21:02:30.598Z,2.47
2022-09-03T21:05:13.492Z,2.43
2022-09-03T21:08:05.802Z,2.30
2022-09-03T21:10:39.461Z,2.63
2022-09-03T21:13:20.612Z,2.40
2022-09-03T21:15:57.292Z,2.60
2022-09-03T21:18:51.838Z,2.72
2022-09-03T21:21:36.194Z,2.25
2022-09-03T21:24:14.809Z,2.47
2022-09-03T21:26:47.597Z,2.35
2022-09-03T21:29:35.252Z,2.95
2022-09-03T21:32:15.783Z,3.30
2022-09-03T21:35:04.137Z,4.65
2022-09-03T21:37:35.607Z,5.60
2022-09-03T21:40:08.039Z,4.18
2022-09-03T21:43:00.309Z,3.38
2022-09-03T21:45:37.422Z,2.55
2022-09-03T21:48:20.335Z,2.47
2022-09-03T21:50:54.958Z,2.33
2022-09-03T21:53:29.976Z,2.67
2022-09-03T21:56:12.086Z,2.88
2022-09-03T21:59:05.782Z,2.90
2022-09-03T22:02:03.699Z,2.60
2022-09-03T22:04:31.459Z,3.65
2022-09-03T22:07:12.819Z,3.63
2022-09-03T22:09:45.549Z,3.25
2022-09-03T22:12:21.607Z,2.40
2022-09-03T22:14:51.755Z,2.63
2022-09-03T22:17:37.282Z,2.95
2022-09-03T22:20:05.465Z,2.90
2022-09-03T22:22:49.555Z,2.80
2022-09-03T22:25:28.296Z,2.60
2022-09-03T22:28:38.418Z,2.50
2022-09-03T22:31:17.050Z,2.63
2022-09-03T22:33:56.126Z,2.40
2022-09-03T22:36:37.612Z,2.75
2022-09-03T22:39:27.644Z,2.80
2022-09-03T22:42:22.525Z,2.78
2022-09-03T22:45:26.957Z,2.33
2022-09-03T22:48:12.475Z,2.45
2022-09-03T22:50:57.955Z,2.55
2022-09-03T22:53:34.800Z,2.42
2022-09-03T22:56:13.781Z,2.70
2022-09-03T22:59:16.873Z,2.35
2022-09-03T23:02:05.112Z,2.60
2022-09-03T23:04:48.035Z,3.13
2022-09-03T23:07:35.173Z,3.30
2022-09-03T23:10:11.824Z,2.70
2022-09-03T23:13:15.955Z,2.65
2022-09-03T23:15:46.363Z,2.55
2022-09-03T23:18:17.719Z,3.35
2022-09-03T23:20:53.795Z,4.00
2022-09-03T23:23:25.834Z,3.30
2022-09-03T23:26:12.379Z,3.10
2022-09-03T23:28:57.224Z,3.38
2022-09-03T23:31:27.403Z,3.72
2022-09-03T23:33:55.091Z,4.00
2022-09-03T23:37:05.735Z,3.78
2022-09-03T23:39:47.590Z,3.90
2022-09-03T23:42:56.170Z,3.10
2022-09-03T23:46:04.309Z,3.65
2022-09-03T23:48:41.361Z,3.78
2022-09-03T23:51:37.180Z,4.13
2022-09-03T23:54:22.289Z,4.40
2022-09-03T23:57:17.414Z,3.53
